createdAt,value
2022-08-09T00:00:04.196Z,1.73
2022-08-09T00:02:48.974Z,2.00
2022-08-09T00:06:18.879Z,1.95
2022-08-09T00:08:10.225Z,1.83
2022-08-09T00:10:38.309Z,1.70
2022-08-09T00:13:06.628Z,1.60
2022-08-09T00:15:59.445Z,1.73
2022-08-09T00:18:35.545Z,1.77
2022-08-09T00:21:05.274Z,2.10
2022-08-09T00:23:55.257Z,1.90
2022-08-09T00:26:30.005Z,1.60
2022-08-09T00:29:02.304Z,1.98
2022-08-09T00:31:58.838Z,1.85
2022-08-09T00:34:19.942Z,1.83
2022-08-09T00:36:48.857Z,1.80
2022-08-09T00:40:13.460Z,1.65
2022-08-09T00:44:09.845Z,1.77
2022-08-09T00:44:55.705Z,1.52
2022-08-09T00:47:25.274Z,1.80
2022-08-09T00:49:54.960Z,1.60
2022-08-09T00:52:30.572Z,1.85
2022-08-09T00:55:00.259Z,2.08
2022-08-09T00:57:34.723Z,1.83
2022-08-09T01:00:21.279Z,1.98
2022-08-09T01:02:58.078Z,2.00
2022-08-09T01:05:51.628Z,1.45
2022-08-09T01:08:27.416Z,1.70
2022-08-09T01:11:08.552Z,1.63
2022-08-09T01:13:59.029Z,1.95
2022-08-09T01:16:35.091Z,2.10
2022-08-09T01:19:17.127Z,2.03
2022-08-09T01:22:40.319Z,1.95
2022-08-09T01:25:22.033Z,2.03
2022-08-09T01:27:54.171Z,2.10
2022-08-09T01:30:28.457Z,2.00
2022-08-09T01:33:04.509Z,2.50
2022-08-09T01:35:51.944Z,2.00
2022-08-09T01:38:24.542Z,1.83
2022-08-09T01:41:05.064Z,2.30
2022-08-09T01:43:50.163Z,2.08
2022-08-09T01:46:25.012Z,3.05
2022-08-09T01:48:57.399Z,1.88
2022-08-09T01:51:32.596Z,1.90
2022-08-09T01:54:04.132Z,2.17
2022-08-09T01:56:34.207Z,1.80
2022-08-09T01:59:07.422Z,2.20
2022-08-09T02:01:59.087Z,2.05
2022-08-09T02:04:26.944Z,2.42
2022-08-09T02:07:15.374Z,2.13
2022-08-09T02:09:59.660Z,2.10
2022-08-09T02:12:33.446Z,2.25
2022-08-09T02:15:06.505Z,2.42
2022-08-09T02:18:00.625Z,2.60
2022-08-09T02:20:32.966Z,2.30
2022-08-09T02:23:06.143Z,2.65
2022-08-09T02:25:42.485Z,2.10
2022-08-09T02:28:20.868Z,2.50
2022-08-09T02:30:59.530Z,2.50
2022-08-09T02:33:38.057Z,2.53
2022-08-09T02:36:10.500Z,2.80
2022-08-09T02:38:47.877Z,2.42
2022-08-09T02:41:21.470Z,2.63
2022-08-09T02:43:55.649Z,2.40
2022-08-09T02:46:28.696Z,2.67
2022-08-09T02:48:59.698Z,2.72
2022-08-09T02:51:37.223Z,2.72
2022-08-09T02:54:13.886Z,2.67
2022-08-09T02:56:51.206Z,2.50
2022-08-09T02:59:36.267Z,2.40
2022-08-09T03:02:11.907Z,2.30
2022-08-09T03:04:46.933Z,3.03
2022-08-09T03:07:19.824Z,2.63
2022-08-09T03:09:54.319Z,2.42
2022-08-09T03:12:25.253Z,2.80
2022-08-09T03:14:53.956Z,3.20
2022-08-09T03:17:27.110Z,2.70
2022-08-09T03:20:02.946Z,2.72
2022-08-09T03:22:41.500Z,2.70
2022-08-09T03:25:27.037Z,2.42
2022-08-09T03:28:01.250Z,2.70
2022-08-09T03:30:34.183Z,2.90
2022-08-09T03:33:17.981Z,2.95
2022-08-09T03:36:12.453Z,3.15
2022-08-09T03:38:41.898Z,2.97
2022-08-09T03:41:15.006Z,3.42
2022-08-09T03:43:51.638Z,3.38
2022-08-09T03:46:31.536Z,3.25
2022-08-09T03:49:08.989Z,3.00
2022-08-09T03:51:55.224Z,2.90
2022-08-09T03:54:29.346Z,3.38
2022-08-09T03:57:00.185Z,3.17
2022-08-09T03:59:53.195Z,3.05
2022-08-09T04:02:26.165Z,3.28
2022-08-09T04:04:57.249Z,3.17
2022-08-09T04:07:47.858Z,3.28
2022-08-09T04:10:15.100Z,4.18
2022-08-09T04:12:50.061Z,3.42
2022-08-09T04:15:42.573Z,3.65
2022-08-09T04:18:08.722Z,3.95
2022-08-09T04:20:37.791Z,3.50
2022-08-09T04:23:10.103Z,3.75
2022-08-09T04:25:44.594Z,3.95
2022-08-09T04:28:34.121Z,3.47
2022-08-09T04:31:09.596Z,3.42
2022-08-09T04:33:50.182Z,4.03
2022-08-09T04:36:23.441Z,4.10
2022-08-09T04:38:52.195Z,3.90
2022-08-09T04:41:23.610Z,6.22
2022-08-09T04:44:05.961Z,4.43
2022-08-09T04:46:38.013Z,4.57
2022-08-09T04:49:52.440Z,3.85
2022-08-09T04:52:21.890Z,6.70
2022-08-09T04:54:55.536Z,5.35
2022-08-09T04:57:24.438Z,5.90
2022-08-09T04:59:54.417Z,6.40
2022-08-09T05:02:22.469Z,4.53
2022-08-09T05:04:53.172Z,5.97
2022-08-09T05:07:25.063Z,4.82
2022-08-09T05:09:57.682Z,4.75
2022-08-09T05:12:26.748Z,4.43
2022-08-09T05:14:54.367Z,5.63
2022-08-09T05:18:39.214Z,5.93
2022-08-09T05:20:11.737Z,5.20
2022-08-09T05:23:55.261Z,6.32
2022-08-09T05:25:32.647Z,11.18
2022-08-09T05:28:00.646Z,8.55
2022-08-09T05:30:29.936Z,6.05
2022-08-09T05:32:59.337Z,5.47
2022-08-09T05:35:27.581Z,4.85
2022-08-09T05:37:58.318Z,5.43
2022-08-09T05:40:28.588Z,4.53
2022-08-09T05:42:56.345Z,4.50
2022-08-09T05:45:24.979Z,7.18
2022-08-09T05:47:54.998Z,4.80
2022-08-09T05:50:44.062Z,9.00
2022-08-09T05:53:21.853Z,5.88
2022-08-09T05:56:01.495Z,4.75
2022-08-09T05:58:29.602Z,4.18
2022-08-09T06:00:58.121Z,4.25
2022-08-09T06:03:34.918Z,4.00
2022-08-09T06:06:12.018Z,5.60
2022-08-09T06:08:41.345Z,4.45
2022-08-09T06:11:16.615Z,8.98
2022-08-09T06:13:45.809Z,5.72
2022-08-09T06:16:16.341Z,4.45
2022-08-09T06:18:44.757Z,6.22
2022-08-09T06:21:12.452Z,4.28
2022-08-09T06:23:55.832Z,3.10
2022-08-09T06:26:28.958Z,5.10
2022-08-09T06:29:00.283Z,3.35
2022-08-09T06:31:39.665Z,4.35
2022-08-09T06:34:22.615Z,4.90
2022-08-09T06:36:57.432Z,4.80
2022-08-09T06:39:57.488Z,5.03
2022-08-09T06:42:18.021Z,4.60
2022-08-09T06:44:47.631Z,3.55
2022-08-09T06:47:22.225Z,5.00
2022-08-09T06:50:14.703Z,3.20
2022-08-09T06:52:40.057Z,3.15
2022-08-09T06:55:12.665Z,3.97
2022-08-09T06:58:01.868Z,3.22
2022-08-09T07:00:51.081Z,2.97
2022-08-09T07:03:17.048Z,3.10
2022-08-09T07:05:58.087Z,2.60
2022-08-09T07:08:32.053Z,3.13
2022-08-09T07:11:03.591Z,2.90
2022-08-09T07:13:45.534Z,3.40
2022-08-09T07:16:39.742Z,2.92
2022-08-09T07:19:07.771Z,4.72
2022-08-09T07:21:35.483Z,3.63
2022-08-09T07:24:05.127Z,3.90
2022-08-09T07:26:34.496Z,4.20
2022-08-09T07:29:12.194Z,2.90
2022-08-09T07:31:45.162Z,3.63
2022-08-09T07:34:19.561Z,2.83
2022-08-09T07:36:49.073Z,4.30
2022-08-09T07:39:19.858Z,3.72
2022-08-09T07:41:56.036Z,3.58
2022-08-09T07:44:32.936Z,2.50
2022-08-09T07:47:11.840Z,4.35
2022-08-09T07:50:05.283Z,2.67
2022-08-09T07:52:31.307Z,2.85
2022-08-09T07:54:59.153Z,3.30
2022-08-09T07:57:35.832Z,2.67
2022-08-09T08:00:04.331Z,2.75
2022-08-09T08:02:43.110Z,3.05
2022-08-09T08:05:18.680Z,2.40
2022-08-09T08:08:43.035Z,2.00
2022-08-09T08:10:34.870Z,2.75
2022-08-09T08:13:04.774Z,2.35
2022-08-09T08:15:35.583Z,2.50
2022-08-09T08:18:06.915Z,2.67
2022-08-09T08:20:35.056Z,2.38
2022-08-09T08:23:17.426Z,2.72
2022-08-09T08:25:49.720Z,2.58
2022-08-09T08:28:31.974Z,2.78
2022-08-09T08:31:06.095Z,2.08
2022-08-09T08:33:52.192Z,2.00
2022-08-09T08:36:29.671Z,2.50
2022-08-09T08:38:59.731Z,1.77
2022-08-09T08:41:50.226Z,2.40
2022-08-09T08:44:26.783Z,1.95
2022-08-09T08:47:02.210Z,2.38
2022-08-09T08:49:33.385Z,2.17
2022-08-09T08:52:10.217Z,2.70
2022-08-09T08:54:42.651Z,1.98
2022-08-09T08:57:11.356Z,2.60
2022-08-09T08:59:46.538Z,1.90
2022-08-09T09:02:31.775Z,2.83
2022-08-09T09:05:05.925Z,2.35
2022-08-09T09:07:42.463Z,1.70
2022-08-09T09:10:12.100Z,1.83
2022-08-09T09:12:41.113Z,1.92
2022-08-09T09:15:12.484Z,2.53
2022-08-09T09:17:56.509Z,1.48
2022-08-09T09:20:25.863Z,1.52
2022-08-09T09:22:56.597Z,1.42
2022-08-09T09:26:02.186Z,1.58
2022-08-09T09:29:02.135Z,1.00
2022-08-09T09:32:06.506Z,1.42
2022-08-09T09:34:14.522Z,1.65
2022-08-09T09:36:46.924Z,1.80
2022-08-09T09:39:25.777Z,3.38
2022-08-09T09:42:24.480Z,2.00
2022-08-09T09:44:56.945Z,2.10
2022-08-09T09:47:29.172Z,1.98
2022-08-09T09:50:17.283Z,3.70
2022-08-09T09:52:54.641Z,2.10
2022-08-09T09:55:31.420Z,2.08
2022-08-09T09:58:18.814Z,2.40
2022-08-09T10:00:52.663Z,2.00
2022-08-09T10:03:57.096Z,2.17
2022-08-09T10:06:25.437Z,1.27
2022-08-09T10:08:59.972Z,1.13
2022-08-09T10:12:00.164Z,1.17
2022-08-09T10:14:27.362Z,1.20
2022-08-09T10:17:11.446Z,1.30
2022-08-09T10:19:52.027Z,1.27
2022-08-09T10:22:32.685Z,1.20
2022-08-09T10:25:06.942Z,1.40
2022-08-09T10:27:56.089Z,1.27
2022-08-09T10:34:04.936Z,1.40
2022-08-09T10:36:04.617Z,2.65
2022-08-09T10:38:54.373Z,1.55
2022-08-09T10:41:20.974Z,1.50
2022-08-09T10:44:00.877Z,1.52
2022-08-09T10:48:12.703Z,1.45
2022-08-09T10:50:14.771Z,1.40
2022-08-09T10:53:03.945Z,1.48
2022-08-09T10:55:35.702Z,1.30
2022-08-09T10:58:31.731Z,1.30
2022-08-09T11:03:06.619Z,1.38
2022-08-09T11:04:29.928Z,1.25
2022-08-09T11:07:27.048Z,1.30
2022-08-09T11:10:16.534Z,1.42
2022-08-09T11:13:51.254Z,1.23
2022-08-09T11:16:36.218Z,1.40
2022-08-09T11:19:09.875Z,1.42
2022-08-09T11:22:05.218Z,1.38
2022-08-09T11:25:05.343Z,1.63
2022-08-09T11:28:03.973Z,1.20
2022-08-09T11:30:36.396Z,1.50
2022-08-09T11:33:08.302Z,2.30
2022-08-09T11:35:50.324Z,1.48
2022-08-09T11:38:22.349Z,1.55
2022-08-09T11:40:56.994Z,1.30
2022-08-09T11:43:41.430Z,1.45
2022-08-09T11:46:10.465Z,1.20
2022-08-09T11:48:48.905Z,1.25
2022-08-09T11:53:00.982Z,1.40
2022-08-09T11:54:27.539Z,1.10
2022-08-09T11:57:59.830Z,1.50
2022-08-09T12:00:29.592Z,1.45
2022-08-09T12:03:31.812Z,1.27
2022-08-09T12:05:50.889Z,1.52
2022-08-09T12:08:21.956Z,1.20
2022-08-09T12:10:53.000Z,1.40
2022-08-09T12:14:07.265Z,1.38
2022-08-09T12:16:37.473Z,1.33
2022-08-09T12:19:09.966Z,1.35
2022-08-09T12:21:48.526Z,1.48
2022-08-09T12:24:23.942Z,1.30
2022-08-09T12:29:11.407Z,1.60
2022-08-09T12:30:03.659Z,1.50
2022-08-09T12:32:42.320Z,1.80
2022-08-09T12:35:17.084Z,1.80
2022-08-09T12:37:50.336Z,1.98
2022-08-09T12:40:23.216Z,1.42
2022-08-09T12:42:52.823Z,2.13
2022-08-09T12:45:34.409Z,1.40
2022-08-09T12:48:07.841Z,1.20
2022-08-09T12:50:41.292Z,1.40
2022-08-09T12:53:35.036Z,1.58
2022-08-09T12:56:40.152Z,1.83
2022-08-09T12:59:07.754Z,1.40
2022-08-09T13:01:38.008Z,1.33
2022-08-09T13:04:08.845Z,1.20
2022-08-09T13:06:58.000Z,1.38
2022-08-09T13:09:30.589Z,1.17
2022-08-09T13:12:03.235Z,1.40
2022-08-09T13:14:40.760Z,1.25
2022-08-09T13:17:25.658Z,2.15
2022-08-09T13:20:14.146Z,1.67
2022-08-09T13:23:01.099Z,1.40
2022-08-09T13:25:42.038Z,1.20
2022-08-09T13:28:18.842Z,1.50
2022-08-09T13:32:14.295Z,1.63
2022-08-09T13:33:57.148Z,1.65
2022-08-09T13:36:40.246Z,1.30
2022-08-09T13:41:51.585Z,1.40
2022-08-09T13:42:03.089Z,1.40
2022-08-09T13:44:31.890Z,1.42
2022-08-09T13:47:29.048Z,0.98
2022-08-09T13:49:56.294Z,1.27
2022-08-09T13:52:26.571Z,1.00
2022-08-09T13:54:59.111Z,1.27
2022-08-09T13:57:36.864Z,1.30
2022-08-09T14:00:11.959Z,1.20
2022-08-09T14:02:42.804Z,1.30
2022-08-09T14:05:59.911Z,1.80
2022-08-09T14:08:18.917Z,1.80
2022-08-09T14:10:52.235Z,1.70
2022-08-09T14:14:16.036Z,1.50
2022-08-09T14:16:13.745Z,1.23
2022-08-09T14:18:45.298Z,1.38
2022-08-09T14:21:21.064Z,1.25
2022-08-09T14:23:54.883Z,1.98
2022-08-09T14:26:30.279Z,1.20
2022-08-09T14:29:01.418Z,1.10
2022-08-09T14:31:50.145Z,1.30
2022-08-09T14:34:17.423Z,1.40
2022-08-09T14:36:45.868Z,2.03
2022-08-09T14:39:17.214Z,1.67
2022-08-09T14:41:46.428Z,1.10
2022-08-09T14:44:15.488Z,1.33
2022-08-09T14:47:04.566Z,1.30
2022-08-09T14:49:34.640Z,1.10
2022-08-09T14:52:08.135Z,2.10
2022-08-09T14:54:35.901Z,1.20
2022-08-09T14:57:08.891Z,1.50
2022-08-09T14:59:38.627Z,1.20
2022-08-09T15:02:07.482Z,0.98
2022-08-09T15:04:36.710Z,1.45
2022-08-09T15:07:04.367Z,1.27
2022-08-09T15:10:04.452Z,3.45
2022-08-09T15:12:21.038Z,0.90
2022-08-09T15:14:50.366Z,1.33
2022-08-09T15:17:18.655Z,1.13
2022-08-09T15:19:54.560Z,1.05
2022-08-09T15:22:27.750Z,1.10
2022-08-09T15:24:55.427Z,1.00
2022-08-09T15:27:24.452Z,0.93
2022-08-09T15:30:57.474Z,0.70
2022-08-09T15:32:42.930Z,0.70
2022-08-09T15:35:18.396Z,1.15
2022-08-09T15:38:11.500Z,1.52
2022-08-09T15:40:43.683Z,0.70
2022-08-09T15:43:13.832Z,0.75
2022-08-09T15:46:07.420Z,0.82
2022-08-09T15:48:31.737Z,0.70
2022-08-09T15:50:59.936Z,1.20
2022-08-09T15:54:05.122Z,0.85
2022-08-09T15:56:21.600Z,0.80
2022-08-09T15:58:58.000Z,1.00
2022-08-09T16:01:25.787Z,1.00
2022-08-09T16:03:53.434Z,0.90
2022-08-09T16:06:32.610Z,0.80
2022-08-09T16:09:05.233Z,0.90
2022-08-09T16:11:33.685Z,0.90
2022-08-09T16:14:07.144Z,1.45
2022-08-09T16:16:37.075Z,0.80
2022-08-09T16:19:05.848Z,1.20
2022-08-09T16:21:35.605Z,1.20
2022-08-09T16:24:04.810Z,0.90
2022-08-09T16:26:34.707Z,1.20
2022-08-09T16:29:11.619Z,1.20
2022-08-09T16:32:18.558Z,0.93
2022-08-09T16:34:55.743Z,1.20
2022-08-09T16:37:18.420Z,1.60
2022-08-09T16:39:54.453Z,1.10
2022-08-09T16:42:32.461Z,1.05
2022-08-09T16:45:01.472Z,1.20
2022-08-09T16:48:41.897Z,1.00
2022-08-09T16:50:32.462Z,1.20
2022-08-09T16:53:02.035Z,1.15
2022-08-09T16:55:31.456Z,1.10
2022-08-09T16:58:18.079Z,1.10
2022-08-09T17:00:48.195Z,1.88
2022-08-09T17:03:21.822Z,1.30
2022-08-09T17:06:08.180Z,1.20
2022-08-09T17:08:45.395Z,1.58
2022-08-09T17:11:32.958Z,1.33
2022-08-09T17:14:25.380Z,1.58
2022-08-09T17:16:56.551Z,1.50
2022-08-09T17:19:28.142Z,1.60
2022-08-09T17:22:16.045Z,2.30
2022-08-09T17:24:55.208Z,1.75
2022-08-09T17:27:23.869Z,2.03
2022-08-09T17:29:51.757Z,4.47
2022-08-09T17:32:36.663Z,2.72
2022-08-09T17:35:11.523Z,1.88
2022-08-09T17:38:02.721Z,1.80
2022-08-09T17:40:29.240Z,1.90
2022-08-09T17:42:59.873Z,2.13
2022-08-09T17:46:03.517Z,3.10
2022-08-09T17:48:29.506Z,2.25
2022-08-09T17:51:08.784Z,2.83
2022-08-09T17:53:51.508Z,3.03
2022-08-09T17:56:27.297Z,2.00
2022-08-09T17:58:58.797Z,2.40
2022-08-09T18:01:57.845Z,2.20
2022-08-09T18:04:17.045Z,3.30
2022-08-09T18:06:54.453Z,2.95
2022-08-09T18:09:25.208Z,1.75
2022-08-09T18:12:15.157Z,2.22
2022-08-09T18:14:49.732Z,1.80
2022-08-09T18:17:27.763Z,2.08
2022-08-09T18:20:55.677Z,2.03
2022-08-09T18:22:59.830Z,1.85
2022-08-09T18:25:52.944Z,2.00
2022-08-09T18:30:39.648Z,1.95
2022-08-09T18:31:08.488Z,1.60
2022-08-09T18:33:36.149Z,1.90
2022-08-09T18:36:05.896Z,2.25
2022-08-09T18:38:33.564Z,1.70
2022-08-09T18:41:01.213Z,1.65
2022-08-09T18:43:29.117Z,1.52
2022-08-09T18:46:49.398Z,1.52
2022-08-09T18:48:50.672Z,2.00
2022-08-09T18:51:19.623Z,2.17
2022-08-09T18:54:16.549Z,1.90
2022-08-09T18:56:55.049Z,2.17
2022-08-09T18:59:22.936Z,1.90
2022-08-09T19:01:54.069Z,2.80
2022-08-09T19:04:24.869Z,2.17
2022-08-09T19:07:05.478Z,1.77
2022-08-09T19:10:13.243Z,1.75
2022-08-09T19:12:21.817Z,1.83
2022-08-09T19:14:51.349Z,1.77
2022-08-09T19:17:19.538Z,1.73
2022-08-09T19:19:49.535Z,1.60
2022-08-09T19:22:27.703Z,2.05
2022-08-09T19:25:11.937Z,1.77
2022-08-09T19:27:43.650Z,2.08
2022-08-09T19:30:25.061Z,1.77
2022-08-09T19:32:55.833Z,1.90
2022-08-09T19:35:26.671Z,1.95
2022-08-09T19:37:57.653Z,1.83
2022-08-09T19:40:34.170Z,1.90
2022-08-09T19:43:10.025Z,2.03
2022-08-09T19:45:44.253Z,2.10
2022-08-09T19:48:12.455Z,2.85
2022-08-09T19:50:51.222Z,2.25
2022-08-09T19:53:23.359Z,2.40
2022-08-09T19:56:05.823Z,2.25
2022-08-09T19:58:35.057Z,2.25
2022-08-09T20:01:03.706Z,2.08
2022-08-09T20:04:13.911Z,2.20
2022-08-09T20:06:23.505Z,2.50
2022-08-09T20:08:56.523Z,2.92
2022-08-09T20:11:26.145Z,3.97
2022-08-09T20:13:54.826Z,2.95
2022-08-09T20:16:33.948Z,2.70
2022-08-09T20:19:48.704Z,2.60
2022-08-09T20:22:00.152Z,2.58
2022-08-09T20:24:33.583Z,2.50
2022-08-09T20:27:05.648Z,2.67
2022-08-09T20:29:37.285Z,2.28
2022-08-09T20:32:29.688Z,1.92
2022-08-09T20:34:54.621Z,2.03
2022-08-09T20:37:22.719Z,2.53
2022-08-09T20:40:16.227Z,1.67
2022-08-09T20:42:39.810Z,2.10
2022-08-09T20:45:56.922Z,2.00
2022-08-09T20:48:01.985Z,1.85
2022-08-09T20:50:48.266Z,2.10
2022-08-09T20:53:35.837Z,1.90
2022-08-09T20:56:08.729Z,1.70
2022-08-09T20:58:37.978Z,2.05
2022-08-09T21:01:33.530Z,1.77
2022-08-09T21:05:48.343Z,2.08
2022-08-09T21:06:45.037Z,2.20
2022-08-09T21:09:13.824Z,1.90
2022-08-09T21:14:31.633Z,1.67
2022-08-09T21:17:00.954Z,1.77
2022-08-09T21:20:17.335Z,1.85
2022-08-09T21:22:37.722Z,1.63
2022-08-09T21:25:22.469Z,1.80
2022-08-09T21:27:55.473Z,1.83
2022-08-09T21:30:23.807Z,2.63
2022-08-09T21:32:53.021Z,2.00
2022-08-09T21:35:21.707Z,2.33
2022-08-09T21:37:59.326Z,2.20
2022-08-09T21:40:30.375Z,1.80
2022-08-09T21:43:00.244Z,2.10
2022-08-09T21:45:29.074Z,2.22
2022-08-09T21:47:58.394Z,2.03
2022-08-09T21:50:35.884Z,2.03
2022-08-09T21:53:23.835Z,2.60
2022-08-09T21:55:55.429Z,1.55
2022-08-09T21:58:29.157Z,1.92
2022-08-09T22:00:59.646Z,1.90
2022-08-09T22:03:28.137Z,1.80
2022-08-09T22:05:57.899Z,1.92
2022-08-09T22:08:26.542Z,2.10
2022-08-09T22:11:50.563Z,2.58
2022-08-09T22:13:45.689Z,2.78
2022-08-09T22:16:13.377Z,2.00
2022-08-09T22:18:53.215Z,2.17
2022-08-09T22:21:24.371Z,1.92
2022-08-09T22:23:59.576Z,2.20
2022-08-09T22:26:35.499Z,2.20
2022-08-09T22:29:09.391Z,2.00
2022-08-09T22:31:37.795Z,2.22
2022-08-09T22:34:09.656Z,2.20
2022-08-09T22:36:45.653Z,2.38
2022-08-09T22:39:46.570Z,2.20
2022-08-09T22:42:02.175Z,2.33
2022-08-09T22:44:32.726Z,2.45
2022-08-09T22:48:13.940Z,2.30
2022-08-09T22:49:52.074Z,2.80
2022-08-09T22:52:20.119Z,2.58
2022-08-09T22:54:47.808Z,2.50
2022-08-09T22:57:16.310Z,2.42
2022-08-09T22:59:57.333Z,2.50
2022-08-09T23:02:27.408Z,2.15
2022-08-09T23:04:57.050Z,2.58
2022-08-09T23:08:27.596Z,2.47
2022-08-09T23:10:31.754Z,2.55
2022-08-09T23:13:00.694Z,2.17
2022-08-09T23:15:30.594Z,2.55
2022-08-09T23:17:58.457Z,2.80
2022-08-09T23:20:28.590Z,3.13
2022-08-09T23:22:56.155Z,2.90
2022-08-09T23:25:23.833Z,2.90
2022-08-09T23:27:57.166Z,3.10
2022-08-09T23:30:40.532Z,3.03
2022-08-09T23:33:18.662Z,2.50
2022-08-09T23:36:06.486Z,2.70
2022-08-09T23:38:33.800Z,2.72
2022-08-09T23:41:02.592Z,2.40
2022-08-09T23:43:30.257Z,2.55
2022-08-09T23:45:59.324Z,2.70
2022-08-09T23:48:27.042Z,2.60
2022-08-09T23:50:54.711Z,2.55
2022-08-09T23:53:22.271Z,2.60
2022-08-09T23:55:55.370Z,2.90
2022-08-09T23:58:26.033Z,3.08
